Phillipstown, Illinois
Current Conditions -  °F | °C
As of 12:55 PM on Friday 24 Oct 2014 (Local Time) from KCUL Reporting Station
Broken Clouds Broken Clouds  
Wind Chill: 20°   Ceiling: 3200
Heat Index: 20°   Visibility: 10mi
Dew Point: 12°   Wind: 0mph
Humidity: 60%   Direction: NA
Pressure: 30.09"   Gusts: NA
Location:  38.1681°N, 88.0517°W
Report Text: KCUL 241755Z AUTO 00000KT 10SM BKN032 20/12 A3009 RMK AO2 T01960117 10205 20102
Loading
Personal Weather Stations






























Interactive Weather Map
Tropical Storm Tracking
New forecast layout! Learn more

10-Day Weather Forecast

Advertisements
Track Severe Weather on mobile